Pagrindinis puslapis
METAR-TAF:

METAR-TAF

Oro uostai :

Palangos oro uostas

Palanga, Lietuva

platuma: 55-55-12N, ilguma: 021-03E, Aukštis: 10 m

Dabartinis oras

Ataskaita buvo paskelbta 31 minutes, ne 20:20 UTC
Vėjas 3 kt iš Rytų/Pietryčių
Temperatūra 16°C
Drėgmė 82%
Slėgis 1021 hPa
Matomumas 10 km arba daugiau
nėra debesų žemiau 1500 m ir nėra kamuolinių lietaus debesų

METAR: EYPA 172020Z 11003KT CAVOK 16/13 Q1021

Laikas: 23:51 (20:51 UTC)

Prognozė

Ataskaita buvo paskelbta 3 valandos ir 51 minutes, ne 17:00 UTC
Prognozė galioja nuo 17 metu 18 UTC su 18 metu 18 UTC
Vėjas 5 kt nuo kintamojo kryptimis
Matomumas: 9000 m
Tikimybė 40% :
Laikinai
nuo 17 metu 22 UTC su 18 metu 03 UTC
Matomumas: 0600 m
ne aukštis 200 ft
rūkas

TAF: EYPA 171700Z 1718/1818 VRB05KT 9000 NSC PROB40 TEMPO 1722/1803 0600 FG VV002

Orai ataskaitas ir orų prognozės (METAR, TAF).

turimą stotys yra geltonos ir raudonos taškus žemėlapyje.

Perkelti pele per norėdami pamatyti stoties vardą.

Tada spustelėkite, norėdami matyti oro stebėjimo ir prognozės.

Norėdami pakeisti žemėlapį: spustelėkite ant žalios mygtukų su juodo kryžiaus žemyn,; žalią mygtuką su brūkšneliu, jei norite nutolinti; arba žalių rodyklių gretimoms žemėlapius.


METAR-TAF: